sensor_id;sensor_type;location;lat;lon;timestamp;P1;durP1;ratioP1;P2;durP2;ratioP2
24357;SDS011;13668;52.154;5.580;2022-08-19T00:00:35;8.93;;;8.20;;
24357;SDS011;13668;52.154;5.580;2022-08-19T00:03:01;9.07;;;8.18;;
24357;SDS011;13668;52.154;5.580;2022-08-19T00:05:28;8.98;;;8.18;;
24357;SDS011;13668;52.154;5.580;2022-08-19T00:07:53;10.63;;;9.52;;
24357;SDS011;13668;52.154;5.580;2022-08-19T00:10:20;11.55;;;9.57;;
24357;SDS011;13668;52.154;5.580;2022-08-19T00:12:46;9.77;;;8.80;;
24357;SDS011;13668;52.154;5.580;2022-08-19T00:15:13;10.80;;;9.75;;
24357;SDS011;13668;52.154;5.580;2022-08-19T00:17:40;10.77;;;9.77;;
24357;SDS011;13668;52.154;5.580;2022-08-19T00:20:11;11.07;;;9.98;;
24357;SDS011;13668;52.154;5.580;2022-08-19T00:22:38;12.63;;;11.43;;
24357;SDS011;13668;52.154;5.580;2022-08-19T00:25:06;10.90;;;9.80;;
24357;SDS011;13668;52.154;5.580;2022-08-19T00:27:33;13.30;;;11.27;;
24357;SDS011;13668;52.154;5.580;2022-08-19T00:29:59;11.85;;;10.07;;
24357;SDS011;13668;52.154;5.580;2022-08-19T00:32:25;10.57;;;9.48;;
24357;SDS011;13668;52.154;5.580;2022-08-19T00:34:51;10.73;;;9.75;;
24357;SDS011;13668;52.154;5.580;2022-08-19T00:37:19;11.20;;;10.13;;
24357;SDS011;13668;52.154;5.580;2022-08-19T00:39:45;11.63;;;10.60;;
24357;SDS011;13668;52.154;5.580;2022-08-19T00:42:10;10.98;;;9.95;;
24357;SDS011;13668;52.154;5.580;2022-08-19T00:44:38;11.05;;;9.85;;
24357;SDS011;13668;52.154;5.580;2022-08-19T00:47:04;10.75;;;9.75;;
24357;SDS011;13668;52.154;5.580;2022-08-19T00:49:32;10.20;;;9.20;;
24357;SDS011;13668;52.154;5.580;2022-08-19T00:52:07;10.25;;;9.25;;
24357;SDS011;13668;52.154;5.580;2022-08-19T00:54:34;12.05;;;10.23;;
24357;SDS011;13668;52.154;5.580;2022-08-19T00:57:02;10.82;;;9.73;;
24357;SDS011;13668;52.154;5.580;2022-08-19T00:59:30;10.48;;;9.48;;
24357;SDS011;13668;52.154;5.580;2022-08-19T01:01:56;11.45;;;10.30;;
24357;SDS011;13668;52.154;5.580;2022-08-19T01:04:23;10.60;;;9.60;;
24357;SDS011;13668;52.154;5.580;2022-08-19T01:06:49;10.45;;;9.45;;
24357;SDS011;13668;52.154;5.580;2022-08-19T01:09:14;11.45;;;10.35;;
24357;SDS011;13668;52.154;5.580;2022-08-19T01:11:41;10.55;;;9.55;;
24357;SDS011;13668;52.154;5.580;2022-08-19T01:14:09;9.70;;;8.90;;
24357;SDS011;13668;52.154;5.580;2022-08-19T01:16:36;10.63;;;9.63;;
24357;SDS011;13668;52.154;5.580;2022-08-19T01:19:03;11.23;;;10.02;;
24357;SDS011;13668;52.154;5.580;2022-08-19T01:21:40;12.70;;;9.82;;
24357;SDS011;13668;52.154;5.580;2022-08-19T01:24:07;10.60;;;9.60;;
24357;SDS011;13668;52.154;5.580;2022-08-19T01:26:38;10.85;;;9.75;;
24357;SDS011;13668;52.154;5.580;2022-08-19T01:29:04;10.50;;;9.50;;
24357;SDS011;13668;52.154;5.580;2022-08-19T01:31:33;10.80;;;9.70;;
24357;SDS011;13668;52.154;5.580;2022-08-19T01:33:59;10.73;;;9.63;;
24357;SDS011;13668;52.154;5.580;2022-08-19T01:36:34;10.43;;;9.52;;
24357;SDS011;13668;52.154;5.580;2022-08-19T01:39:03;11.15;;;9.30;;
24357;SDS011;13668;52.154;5.580;2022-08-19T01:41:29;11.40;;;10.30;;
24357;SDS011;13668;52.154;5.580;2022-08-19T01:43:55;12.82;;;11.65;;
24357;SDS011;13668;52.154;5.580;2022-08-19T01:46:21;11.50;;;10.20;;
24357;SDS011;13668;52.154;5.580;2022-08-19T01:48:48;10.65;;;9.55;;
24357;SDS011;13668;52.154;5.580;2022-08-19T01:51:14;12.20;;;10.95;;
24357;SDS011;13668;52.154;5.580;2022-08-19T01:53:40;12.70;;;11.38;;
24357;SDS011;13668;52.154;5.580;2022-08-19T01:56:08;12.40;;;11.20;;
24357;SDS011;13668;52.154;5.580;2022-08-19T01:58:37;11.77;;;10.57;;
24357;SDS011;13668;52.154;5.580;2022-08-19T02:01:05;12.10;;;10.90;;
24357;SDS011;13668;52.154;5.580;2022-08-19T02:03:31;13.40;;;12.00;;
24357;SDS011;13668;52.154;5.580;2022-08-19T02:05:59;13.35;;;10.70;;
24357;SDS011;13668;52.154;5.580;2022-08-19T02:08:26;14.80;;;12.10;;
24357;SDS011;13668;52.154;5.580;2022-08-19T02:10:52;12.13;;;10.93;;
24357;SDS011;13668;52.154;5.580;2022-08-19T02:13:18;11.98;;;10.52;;
24357;SDS011;13668;52.154;5.580;2022-08-19T02:15:44;12.82;;;11.48;;
24357;SDS011;13668;52.154;5.580;2022-08-19T02:18:11;13.70;;;11.88;;
24357;SDS011;13668;52.154;5.580;2022-08-19T02:20:37;13.15;;;11.35;;
24357;SDS011;13668;52.154;5.580;2022-08-19T02:23:03;14.00;;;11.07;;
24357;SDS011;13668;52.154;5.580;2022-08-19T02:25:29;11.88;;;10.55;;
24357;SDS011;13668;52.154;5.580;2022-08-19T02:27:55;11.38;;;10.27;;
24357;SDS011;13668;52.154;5.580;2022-08-19T02:30:22;11.80;;;10.57;;
24357;SDS011;13668;52.154;5.580;2022-08-19T02:32:49;12.65;;;10.70;;
24357;SDS011;13668;52.154;5.580;2022-08-19T02:35:15;12.65;;;11.35;;
24357;SDS011;13668;52.154;5.580;2022-08-19T02:37:41;11.75;;;10.63;;
24357;SDS011;13668;52.154;5.580;2022-08-19T02:40:27;12.30;;;11.20;;
24357;SDS011;13668;52.154;5.580;2022-08-19T02:42:53;12.48;;;11.20;;
24357;SDS011;13668;52.154;5.580;2022-08-19T02:45:19;12.73;;;11.35;;
24357;SDS011;13668;52.154;5.580;2022-08-19T02:47:45;11.88;;;10.68;;
24357;SDS011;13668;52.154;5.580;2022-08-19T02:50:11;19.20;;;11.32;;
24357;SDS011;13668;52.154;5.580;2022-08-19T02:52:37;11.38;;;10.38;;
24357;SDS011;13668;52.154;5.580;2022-08-19T02:55:04;12.65;;;11.40;;
24357;SDS011;13668;52.154;5.580;2022-08-19T02:57:30;10.90;;;9.90;;
24357;SDS011;13668;52.154;5.580;2022-08-19T02:59:56;12.43;;;10.70;;
24357;SDS011;13668;52.154;5.580;2022-08-19T03:02:22;11.25;;;10.15;;
24357;SDS011;13668;52.154;5.580;2022-08-19T03:04:49;11.95;;;10.85;;
24357;SDS011;13668;52.154;5.580;2022-08-19T03:07:16;12.93;;;11.57;;
24357;SDS011;13668;52.154;5.580;2022-08-19T03:09:43;11.05;;;10.00;;
24357;SDS011;13668;52.154;5.580;2022-08-19T03:12:09;13.57;;;10.63;;
24357;SDS011;13668;52.154;5.580;2022-08-19T03:14:36;13.13;;;11.27;;
24357;SDS011;13668;52.154;5.580;2022-08-19T03:17:02;12.88;;;10.82;;
24357;SDS011;13668;52.154;5.580;2022-08-19T03:19:29;12.25;;;11.05;;
24357;SDS011;13668;52.154;5.580;2022-08-19T03:21:56;10.98;;;9.98;;
24357;SDS011;13668;52.154;5.580;2022-08-19T03:24:22;12.02;;;10.65;;
24357;SDS011;13668;52.154;5.580;2022-08-19T03:26:50;11.38;;;10.18;;
24357;SDS011;13668;52.154;5.580;2022-08-19T03:29:17;14.63;;;11.48;;
24357;SDS011;13668;52.154;5.580;2022-08-19T03:31:44;13.15;;;10.60;;
24357;SDS011;13668;52.154;5.580;2022-08-19T03:34:12;11.43;;;10.32;;
24357;SDS011;13668;52.154;5.580;2022-08-19T03:36:38;12.15;;;10.98;;
24357;SDS011;13668;52.154;5.580;2022-08-19T03:39:05;12.32;;;10.63;;
24357;SDS011;13668;52.154;5.580;2022-08-19T03:41:37;13.00;;;11.70;;
24357;SDS011;13668;52.154;5.580;2022-08-19T03:44:03;13.35;;;11.07;;
24357;SDS011;13668;52.154;5.580;2022-08-19T03:46:31;14.05;;;11.80;;
24357;SDS011;13668;52.154;5.580;2022-08-19T03:48:58;12.38;;;11.18;;
24357;SDS011;13668;52.154;5.580;2022-08-19T03:51:29;13.18;;;11.65;;
24357;SDS011;13668;52.154;5.580;2022-08-19T03:53:56;13.75;;;12.30;;
24357;SDS011;13668;52.154;5.580;2022-08-19T03:56:23;14.00;;;11.85;;
24357;SDS011;13668;52.154;5.580;2022-08-19T03:58:50;14.52;;;11.95;;
24357;SDS011;13668;52.154;5.580;2022-08-19T04:01:19;12.73;;;11.43;;
24357;SDS011;13668;52.154;5.580;2022-08-19T04:03:45;13.95;;;12.10;;
24357;SDS011;13668;52.154;5.580;2022-08-19T04:06:16;13.30;;;12.02;;
24357;SDS011;13668;52.154;5.580;2022-08-19T04:08:43;13.57;;;12.00;;
24357;SDS011;13668;52.154;5.580;2022-08-19T04:11:10;13.52;;;12.15;;
24357;SDS011;13668;52.154;5.580;2022-08-19T04:13:37;14.55;;;13.05;;
24357;SDS011;13668;52.154;5.580;2022-08-19T04:16:03;15.15;;;12.10;;
24357;SDS011;13668;52.154;5.580;2022-08-19T04:18:29;13.45;;;12.13;;
24357;SDS011;13668;52.154;5.580;2022-08-19T04:20:56;12.30;;;11.15;;
24357;SDS011;13668;52.154;5.580;2022-08-19T04:23:22;13.68;;;11.80;;
24357;SDS011;13668;52.154;5.580;2022-08-19T04:25:48;11.90;;;10.75;;
24357;SDS011;13668;52.154;5.580;2022-08-19T04:28:17;12.80;;;11.52;;
24357;SDS011;13668;52.154;5.580;2022-08-19T04:30:44;11.98;;;10.77;;
24357;SDS011;13668;52.154;5.580;2022-08-19T04:33:12;12.55;;;11.00;;
24357;SDS011;13668;52.154;5.580;2022-08-19T04:35:41;11.63;;;10.48;;
24357;SDS011;13668;52.154;5.580;2022-08-19T04:38:07;11.55;;;10.27;;
24357;SDS011;13668;52.154;5.580;2022-08-19T04:40:34;11.48;;;10.27;;
24357;SDS011;13668;52.154;5.580;2022-08-19T04:43:18;12.13;;;10.93;;
24357;SDS011;13668;52.154;5.580;2022-08-19T04:45:44;11.95;;;10.15;;
24357;SDS011;13668;52.154;5.580;2022-08-19T04:48:11;12.00;;;10.77;;
24357;SDS011;13668;52.154;5.580;2022-08-19T04:50:41;11.02;;;10.02;;
24357;SDS011;13668;52.154;5.580;2022-08-19T04:53:08;12.95;;;10.60;;
24357;SDS011;13668;52.154;5.580;2022-08-19T04:55:34;11.85;;;10.65;;
24357;SDS011;13668;52.154;5.580;2022-08-19T04:58:00;11.50;;;10.23;;
24357;SDS011;13668;52.154;5.580;2022-08-19T05:00:27;12.55;;;10.25;;
24357;SDS011;13668;52.154;5.580;2022-08-19T05:02:53;11.57;;;10.43;;
24357;SDS011;13668;52.154;5.580;2022-08-19T05:05:19;12.95;;;11.43;;
24357;SDS011;13668;52.154;5.580;2022-08-19T05:07:45;11.10;;;10.00;;
24357;SDS011;13668;52.154;5.580;2022-08-19T05:10:11;12.55;;;11.23;;
24357;SDS011;13668;52.154;5.580;2022-08-19T05:12:37;12.32;;;11.02;;
24357;SDS011;13668;52.154;5.580;2022-08-19T05:15:04;12.63;;;11.38;;
24357;SDS011;13668;52.154;5.580;2022-08-19T05:17:30;12.65;;;11.35;;
24357;SDS011;13668;52.154;5.580;2022-08-19T05:19:56;12.23;;;11.13;;
24357;SDS011;13668;52.154;5.580;2022-08-19T05:22:42;12.40;;;11.18;;
24357;SDS011;13668;52.154;5.580;2022-08-19T05:25:10;11.57;;;10.40;;
24357;SDS011;13668;52.154;5.580;2022-08-19T05:27:37;11.30;;;10.25;;
24357;SDS011;13668;52.154;5.580;2022-08-19T05:30:03;11.75;;;10.55;;
24357;SDS011;13668;52.154;5.580;2022-08-19T05:32:29;10.82;;;9.73;;
24357;SDS011;13668;52.154;5.580;2022-08-19T05:34:55;12.00;;;10.90;;
24357;SDS011;13668;52.154;5.580;2022-08-19T05:37:21;12.00;;;10.70;;
24357;SDS011;13668;52.154;5.580;2022-08-19T05:39:47;13.95;;;10.60;;
24357;SDS011;13668;52.154;5.580;2022-08-19T05:42:14;14.40;;;12.40;;
24357;SDS011;13668;52.154;5.580;2022-08-19T05:44:41;12.80;;;11.55;;
24357;SDS011;13668;52.154;5.580;2022-08-19T05:47:11;14.48;;;13.00;;
24357;SDS011;13668;52.154;5.580;2022-08-19T05:49:37;14.90;;;13.30;;
24357;SDS011;13668;52.154;5.580;2022-08-19T05:52:06;17.02;;;14.85;;
24357;SDS011;13668;52.154;5.580;2022-08-19T05:54:33;17.52;;;15.30;;
24357;SDS011;13668;52.154;5.580;2022-08-19T05:57:00;19.70;;;15.50;;
24357;SDS011;13668;52.154;5.580;2022-08-19T05:59:26;25.42;;;18.10;;
24357;SDS011;13668;52.154;5.580;2022-08-19T06:01:53;26.38;;;18.70;;
24357;SDS011;13668;52.154;5.580;2022-08-19T06:04:20;23.80;;;18.80;;
24357;SDS011;13668;52.154;5.580;2022-08-19T06:06:47;27.27;;;18.27;;
24357;SDS011;13668;52.154;5.580;2022-08-19T06:09:13;27.95;;;20.23;;
24357;SDS011;13668;52.154;5.580;2022-08-19T06:11:41;29.92;;;21.88;;
24357;SDS011;13668;52.154;5.580;2022-08-19T06:14:09;31.60;;;21.00;;
24357;SDS011;13668;52.154;5.580;2022-08-19T06:16:36;38.00;;;24.10;;
24357;SDS011;13668;52.154;5.580;2022-08-19T06:19:04;39.67;;;24.00;;
24357;SDS011;13668;52.154;5.580;2022-08-19T06:21:31;35.63;;;24.10;;
24357;SDS011;13668;52.154;5.580;2022-08-19T06:23:57;38.83;;;24.88;;
24357;SDS011;13668;52.154;5.580;2022-08-19T06:26:23;37.40;;;24.25;;
24357;SDS011;13668;52.154;5.580;2022-08-19T06:28:49;37.40;;;24.10;;
24357;SDS011;13668;52.154;5.580;2022-08-19T06:31:16;34.30;;;24.15;;
24357;SDS011;13668;52.154;5.580;2022-08-19T06:33:43;36.40;;;23.83;;
24357;SDS011;13668;52.154;5.580;2022-08-19T06:36:16;43.75;;;26.70;;
24357;SDS011;13668;52.154;5.580;2022-08-19T06:38:43;48.33;;;27.60;;
24357;SDS011;13668;52.154;5.580;2022-08-19T06:41:08;57.63;;;30.73;;
24357;SDS011;13668;52.154;5.580;2022-08-19T06:43:35;54.45;;;29.65;;
24357;SDS011;13668;52.154;5.580;2022-08-19T06:46:01;51.45;;;29.88;;
24357;SDS011;13668;52.154;5.580;2022-08-19T06:48:28;53.67;;;29.00;;
24357;SDS011;13668;52.154;5.580;2022-08-19T06:53:29;49.97;;;29.48;;
24357;SDS011;13668;52.154;5.580;2022-08-19T06:55:54;52.38;;;30.40;;
24357;SDS011;13668;52.154;5.580;2022-08-19T06:58:25;48.85;;;29.25;;
24357;SDS011;13668;52.154;5.580;2022-08-19T07:00:51;49.13;;;29.73;;
24357;SDS011;13668;52.154;5.580;2022-08-19T07:03:17;46.65;;;28.80;;
24357;SDS011;13668;52.154;5.580;2022-08-19T07:05:43;45.67;;;28.67;;
24357;SDS011;13668;52.154;5.580;2022-08-19T07:08:09;42.42;;;29.58;;
24357;SDS011;13668;52.154;5.580;2022-08-19T07:10:35;45.90;;;29.13;;
24357;SDS011;13668;52.154;5.580;2022-08-19T07:13:02;40.45;;;27.70;;
24357;SDS011;13668;52.154;5.580;2022-08-19T07:15:28;37.63;;;27.08;;
24357;SDS011;13668;52.154;5.580;2022-08-19T07:17:55;44.47;;;30.30;;
24357;SDS011;13668;52.154;5.580;2022-08-19T07:20:21;48.67;;;31.25;;
24357;SDS011;13668;52.154;5.580;2022-08-19T07:22:48;47.97;;;33.08;;
24357;SDS011;13668;52.154;5.580;2022-08-19T07:25:15;51.95;;;32.90;;
24357;SDS011;13668;52.154;5.580;2022-08-19T07:27:42;53.05;;;35.38;;
24357;SDS011;13668;52.154;5.580;2022-08-19T07:30:09;55.78;;;35.47;;
24357;SDS011;13668;52.154;5.580;2022-08-19T07:32:36;52.15;;;35.05;;
24357;SDS011;13668;52.154;5.580;2022-08-19T07:35:02;58.00;;;34.88;;
24357;SDS011;13668;52.154;5.580;2022-08-19T07:37:29;59.38;;;37.40;;
24357;SDS011;13668;52.154;5.580;2022-08-19T07:39:55;65.43;;;38.35;;
24357;SDS011;13668;52.154;5.580;2022-08-19T07:42:21;56.83;;;38.05;;
24357;SDS011;13668;52.154;5.580;2022-08-19T07:44:47;60.92;;;37.90;;
24357;SDS011;13668;52.154;5.580;2022-08-19T07:47:13;67.95;;;41.30;;
24357;SDS011;13668;52.154;5.580;2022-08-19T07:49:40;66.85;;;41.10;;
24357;SDS011;13668;52.154;5.580;2022-08-19T07:52:08;62.08;;;37.85;;
24357;SDS011;13668;52.154;5.580;2022-08-19T07:54:35;58.20;;;36.80;;
24357;SDS011;13668;52.154;5.580;2022-08-19T07:57:02;56.88;;;34.80;;
24357;SDS011;13668;52.154;5.580;2022-08-19T07:59:28;56.38;;;33.03;;
24357;SDS011;13668;52.154;5.580;2022-08-19T08:01:54;52.80;;;32.78;;
24357;SDS011;13668;52.154;5.580;2022-08-19T08:04:20;54.95;;;33.63;;
24357;SDS011;13668;52.154;5.580;2022-08-19T08:07:05;48.20;;;32.03;;
24357;SDS011;13668;52.154;5.580;2022-08-19T08:09:50;43.63;;;28.70;;
24357;SDS011;13668;52.154;5.580;2022-08-19T08:12:22;48.05;;;32.03;;
24357;SDS011;13668;52.154;5.580;2022-08-19T08:14:52;44.30;;;28.23;;
24357;SDS011;13668;52.154;5.580;2022-08-19T08:17:20;41.63;;;28.60;;
24357;SDS011;13668;52.154;5.580;2022-08-19T08:19:46;41.95;;;27.38;;
24357;SDS011;13668;52.154;5.580;2022-08-19T08:22:14;39.70;;;27.50;;
24357;SDS011;13668;52.154;5.580;2022-08-19T08:25:07;40.28;;;26.88;;
24357;SDS011;13668;52.154;5.580;2022-08-19T08:27:36;37.60;;;25.52;;
24357;SDS011;13668;52.154;5.580;2022-08-19T08:30:05;32.00;;;23.92;;
24357;SDS011;13668;52.154;5.580;2022-08-19T08:32:34;33.22;;;22.75;;
24357;SDS011;13668;52.154;5.580;2022-08-19T08:35:00;33.80;;;24.50;;
24357;SDS011;13668;52.154;5.580;2022-08-19T08:37:26;32.50;;;23.00;;
24357;SDS011;13668;52.154;5.580;2022-08-19T08:39:52;30.60;;;22.08;;
24357;SDS011;13668;52.154;5.580;2022-08-19T08:47:13;33.13;;;22.38;;
24357;SDS011;13668;52.154;5.580;2022-08-19T08:49:51;33.10;;;23.15;;
24357;SDS011;13668;52.154;5.580;2022-08-19T08:52:18;29.77;;;21.73;;
24357;SDS011;13668;52.154;5.580;2022-08-19T08:54:47;28.25;;;21.15;;
24357;SDS011;13668;52.154;5.580;2022-08-19T08:57:15;29.50;;;21.80;;
24357;SDS011;13668;52.154;5.580;2022-08-19T08:59:43;29.63;;;20.50;;
24357;SDS011;13668;52.154;5.580;2022-08-19T09:02:11;28.52;;;21.67;;
24357;SDS011;13668;52.154;5.580;2022-08-19T09:04:37;29.30;;;21.58;;
24357;SDS011;13668;52.154;5.580;2022-08-19T09:09:43;29.40;;;21.70;;
24357;SDS011;13668;52.154;5.580;2022-08-19T09:14:57;25.92;;;19.98;;
24357;SDS011;13668;52.154;5.580;2022-08-19T09:17:25;26.95;;;21.20;;
24357;SDS011;13668;52.154;5.580;2022-08-19T09:22:38;24.52;;;18.65;;
24357;SDS011;13668;52.154;5.580;2022-08-19T09:25:05;27.60;;;19.50;;
24357;SDS011;13668;52.154;5.580;2022-08-19T09:27:31;24.05;;;18.27;;
24357;SDS011;13668;52.154;5.580;2022-08-19T09:29:57;20.33;;;15.68;;
24357;SDS011;13668;52.154;5.580;2022-08-19T09:32:24;18.33;;;15.63;;
24357;SDS011;13668;52.154;5.580;2022-08-19T09:34:51;18.85;;;14.82;;
24357;SDS011;13668;52.154;5.580;2022-08-19T09:37:19;20.58;;;15.95;;
24357;SDS011;13668;52.154;5.580;2022-08-19T09:39:46;12.38;;;10.85;;
24357;SDS011;13668;52.154;5.580;2022-08-19T09:42:12;18.20;;;14.88;;
24357;SDS011;13668;52.154;5.580;2022-08-19T09:44:39;18.35;;;15.90;;
24357;SDS011;13668;52.154;5.580;2022-08-19T09:47:06;17.52;;;14.35;;
24357;SDS011;13668;52.154;5.580;2022-08-19T09:49:34;15.73;;;14.10;;
24357;SDS011;13668;52.154;5.580;2022-08-19T09:52:00;17.10;;;12.75;;
24357;SDS011;13668;52.154;5.580;2022-08-19T09:54:29;14.48;;;11.90;;
24357;SDS011;13668;52.154;5.580;2022-08-19T09:56:55;17.63;;;14.27;;
24357;SDS011;13668;52.154;5.580;2022-08-19T09:59:21;16.25;;;11.23;;
24357;SDS011;13668;52.154;5.580;2022-08-19T10:01:50;14.30;;;12.30;;
24357;SDS011;13668;52.154;5.580;2022-08-19T10:04:16;18.58;;;13.30;;
24357;SDS011;13668;52.154;5.580;2022-08-19T10:06:42;14.75;;;13.18;;
24357;SDS011;13668;52.154;5.580;2022-08-19T10:09:09;15.02;;;12.77;;
24357;SDS011;13668;52.154;5.580;2022-08-19T10:11:36;19.17;;;13.27;;
24357;SDS011;13668;52.154;5.580;2022-08-19T10:14:03;14.30;;;12.65;;
24357;SDS011;13668;52.154;5.580;2022-08-19T10:16:32;14.45;;;11.45;;
24357;SDS011;13668;52.154;5.580;2022-08-19T10:18:58;18.40;;;13.55;;
24357;SDS011;13668;52.154;5.580;2022-08-19T10:21:27;14.93;;;11.88;;
24357;SDS011;13668;52.154;5.580;2022-08-19T10:23:54;14.75;;;11.73;;
24357;SDS011;13668;52.154;5.580;2022-08-19T10:26:23;17.27;;;13.73;;
24357;SDS011;13668;52.154;5.580;2022-08-19T10:28:50;18.15;;;14.00;;
24357;SDS011;13668;52.154;5.580;2022-08-19T10:31:18;17.65;;;13.63;;
24357;SDS011;13668;52.154;5.580;2022-08-19T10:33:44;17.88;;;12.45;;
24357;SDS011;13668;52.154;5.580;2022-08-19T10:36:12;15.27;;;12.23;;
24357;SDS011;13668;52.154;5.580;2022-08-19T10:38:40;17.27;;;12.52;;
24357;SDS011;13668;52.154;5.580;2022-08-19T10:41:06;20.88;;;13.38;;
24357;SDS011;13668;52.154;5.580;2022-08-19T10:43:33;17.08;;;13.80;;
24357;SDS011;13668;52.154;5.580;2022-08-19T10:46:03;15.43;;;12.75;;
24357;SDS011;13668;52.154;5.580;2022-08-19T10:48:30;18.30;;;14.35;;
24357;SDS011;13668;52.154;5.580;2022-08-19T10:50:57;16.05;;;12.10;;
24357;SDS011;13668;52.154;5.580;2022-08-19T10:53:41;14.40;;;10.93;;
24357;SDS011;13668;52.154;5.580;2022-08-19T10:56:07;14.05;;;11.25;;
24357;SDS011;13668;52.154;5.580;2022-08-19T10:58:52;17.67;;;13.18;;
24357;SDS011;13668;52.154;5.580;2022-08-19T11:01:18;15.50;;;11.68;;
24357;SDS011;13668;52.154;5.580;2022-08-19T11:03:44;13.55;;;11.40;;
24357;SDS011;13668;52.154;5.580;2022-08-19T11:06:10;18.55;;;13.80;;
24357;SDS011;13668;52.154;5.580;2022-08-19T11:08:37;15.30;;;12.27;;
24357;SDS011;13668;52.154;5.580;2022-08-19T11:11:03;15.43;;;13.32;;
24357;SDS011;13668;52.154;5.580;2022-08-19T11:13:30;18.17;;;13.07;;
24357;SDS011;13668;52.154;5.580;2022-08-19T11:16:31;20.67;;;15.25;;
24357;SDS011;13668;52.154;5.580;2022-08-19T11:18:51;18.90;;;15.23;;
24357;SDS011;13668;52.154;5.580;2022-08-19T11:23:44;19.75;;;15.30;;
24357;SDS011;13668;52.154;5.580;2022-08-19T11:26:10;20.08;;;15.80;;
24357;SDS011;13668;52.154;5.580;2022-08-19T11:28:37;17.38;;;15.55;;
24357;SDS011;13668;52.154;5.580;2022-08-19T11:31:03;17.92;;;15.57;;
24357;SDS011;13668;52.154;5.580;2022-08-19T11:33:30;19.77;;;17.58;;
24357;SDS011;13668;52.154;5.580;2022-08-19T11:35:57;21.77;;;17.95;;
24357;SDS011;13668;52.154;5.580;2022-08-19T11:38:24;18.13;;;15.65;;
24357;SDS011;13668;52.154;5.580;2022-08-19T11:41:00;22.80;;;18.52;;
24357;SDS011;13668;52.154;5.580;2022-08-19T11:43:27;24.80;;;17.65;;
24357;SDS011;13668;52.154;5.580;2022-08-19T11:45:53;19.45;;;16.75;;
24357;SDS011;13668;52.154;5.580;2022-08-19T11:48:20;23.83;;;17.95;;
24357;SDS011;13668;52.154;5.580;2022-08-19T11:50:47;24.15;;;19.80;;
24357;SDS011;13668;52.154;5.580;2022-08-19T11:53:13;25.63;;;19.67;;
24357;SDS011;13668;52.154;5.580;2022-08-19T11:55:39;24.90;;;19.10;;
24357;SDS011;13668;52.154;5.580;2022-08-19T11:58:05;25.88;;;19.35;;
24357;SDS011;13668;52.154;5.580;2022-08-19T12:00:33;22.90;;;20.25;;
24357;SDS011;13668;52.154;5.580;2022-08-19T12:03:00;30.65;;;21.35;;
24357;SDS011;13668;52.154;5.580;2022-08-19T12:05:26;22.70;;;18.98;;
24357;SDS011;13668;52.154;5.580;2022-08-19T12:07:52;24.38;;;19.90;;
24357;SDS011;13668;52.154;5.580;2022-08-19T12:10:19;29.20;;;21.25;;
24357;SDS011;13668;52.154;5.580;2022-08-19T12:12:45;20.27;;;17.15;;
24357;SDS011;13668;52.154;5.580;2022-08-19T12:15:11;24.67;;;19.42;;
24357;SDS011;13668;52.154;5.580;2022-08-19T12:17:39;28.42;;;22.33;;
24357;SDS011;13668;52.154;5.580;2022-08-19T12:20:06;27.02;;;20.75;;
24357;SDS011;13668;52.154;5.580;2022-08-19T12:22:34;26.55;;;20.40;;
24357;SDS011;13668;52.154;5.580;2022-08-19T12:25:00;27.33;;;21.52;;
24357;SDS011;13668;52.154;5.580;2022-08-19T12:27:26;24.02;;;20.27;;
24357;SDS011;13668;52.154;5.580;2022-08-19T12:29:52;27.98;;;20.27;;
24357;SDS011;13668;52.154;5.580;2022-08-19T12:32:18;28.48;;;22.55;;
24357;SDS011;13668;52.154;5.580;2022-08-19T12:34:44;31.88;;;23.42;;
24357;SDS011;13668;52.154;5.580;2022-08-19T12:37:12;28.90;;;23.55;;
24357;SDS011;13668;52.154;5.580;2022-08-19T12:39:39;31.88;;;24.92;;
24357;SDS011;13668;52.154;5.580;2022-08-19T12:42:06;29.48;;;22.70;;
24357;SDS011;13668;52.154;5.580;2022-08-19T12:44:33;32.08;;;23.20;;
24357;SDS011;13668;52.154;5.580;2022-08-19T12:46:59;31.15;;;23.80;;
24357;SDS011;13668;52.154;5.580;2022-08-19T12:49:26;28.52;;;21.05;;
24357;SDS011;13668;52.154;5.580;2022-08-19T12:51:52;26.90;;;21.17;;
24357;SDS011;13668;52.154;5.580;2022-08-19T12:54:22;30.13;;;23.33;;
24357;SDS011;13668;52.154;5.580;2022-08-19T12:56:48;29.70;;;22.92;;
24357;SDS011;13668;52.154;5.580;2022-08-19T12:59:14;31.58;;;22.75;;
24357;SDS011;13668;52.154;5.580;2022-08-19T13:01:43;27.83;;;21.10;;
24357;SDS011;13668;52.154;5.580;2022-08-19T13:04:09;31.40;;;23.23;;
24357;SDS011;13668;52.154;5.580;2022-08-19T13:06:38;28.52;;;22.73;;
24357;SDS011;13668;52.154;5.580;2022-08-19T13:09:04;38.70;;;25.15;;
24357;SDS011;13668;52.154;5.580;2022-08-19T13:11:30;36.17;;;25.98;;
24357;SDS011;13668;52.154;5.580;2022-08-19T13:13:59;38.25;;;27.20;;
24357;SDS011;13668;52.154;5.580;2022-08-19T13:16:25;39.08;;;27.75;;
24357;SDS011;13668;52.154;5.580;2022-08-19T13:18:52;36.15;;;25.83;;
24357;SDS011;13668;52.154;5.580;2022-08-19T13:21:19;34.55;;;25.70;;
24357;SDS011;13668;52.154;5.580;2022-08-19T13:23:45;30.05;;;23.33;;
24357;SDS011;13668;52.154;5.580;2022-08-19T13:26:11;27.95;;;21.50;;
24357;SDS011;13668;52.154;5.580;2022-08-19T13:28:38;23.33;;;19.75;;
24357;SDS011;13668;52.154;5.580;2022-08-19T13:31:24;26.13;;;19.52;;
24357;SDS011;13668;52.154;5.580;2022-08-19T13:34:10;19.13;;;16.48;;
24357;SDS011;13668;52.154;5.580;2022-08-19T13:36:36;18.70;;;16.80;;
24357;SDS011;13668;52.154;5.580;2022-08-19T13:39:03;20.40;;;17.17;;
24357;SDS011;13668;52.154;5.580;2022-08-19T13:41:29;22.95;;;17.50;;
24357;SDS011;13668;52.154;5.580;2022-08-19T13:43:55;19.67;;;17.55;;
24357;SDS011;13668;52.154;5.580;2022-08-19T13:46:21;18.58;;;16.58;;
24357;SDS011;13668;52.154;5.580;2022-08-19T13:48:47;18.33;;;16.42;;
24357;SDS011;13668;52.154;5.580;2022-08-19T13:51:14;22.25;;;18.90;;
24357;SDS011;13668;52.154;5.580;2022-08-19T13:53:42;27.02;;;20.70;;
24357;SDS011;13668;52.154;5.580;2022-08-19T13:56:09;24.27;;;21.30;;
24357;SDS011;13668;52.154;5.580;2022-08-19T13:58:36;24.70;;;22.17;;
24357;SDS011;13668;52.154;5.580;2022-08-19T14:01:02;26.35;;;22.27;;
24357;SDS011;13668;52.154;5.580;2022-08-19T14:03:28;23.83;;;21.27;;
24357;SDS011;13668;52.154;5.580;2022-08-19T14:05:54;24.58;;;21.27;;
24357;SDS011;13668;52.154;5.580;2022-08-19T14:08:21;28.85;;;22.10;;
24357;SDS011;13668;52.154;5.580;2022-08-19T14:10:47;24.75;;;22.17;;
24357;SDS011;13668;52.154;5.580;2022-08-19T14:13:14;26.13;;;22.83;;
24357;SDS011;13668;52.154;5.580;2022-08-19T14:15:41;27.35;;;23.23;;
24357;SDS011;13668;52.154;5.580;2022-08-19T14:18:07;26.52;;;23.30;;
24357;SDS011;13668;52.154;5.580;2022-08-19T14:20:34;27.02;;;23.38;;
24357;SDS011;13668;52.154;5.580;2022-08-19T14:23:00;26.30;;;22.52;;
24357;SDS011;13668;52.154;5.580;2022-08-19T14:25:27;27.70;;;24.17;;
24357;SDS011;13668;52.154;5.580;2022-08-19T14:27:54;25.98;;;22.88;;
24357;SDS011;13668;52.154;5.580;2022-08-19T14:30:24;28.98;;;22.95;;
24357;SDS011;13668;52.154;5.580;2022-08-19T14:32:51;24.42;;;19.75;;
24357;SDS011;13668;52.154;5.580;2022-08-19T14:35:18;26.40;;;19.35;;
24357;SDS011;13668;52.154;5.580;2022-08-19T14:37:46;17.92;;;15.65;;
24357;SDS011;13668;52.154;5.580;2022-08-19T14:40:12;15.40;;;13.57;;
24357;SDS011;13668;52.154;5.580;2022-08-19T14:42:38;13.02;;;11.63;;